sensor_id;sensor_type;location;lat;lon;timestamp;pressure;altitude;pressure_sealevel;temperature;humidity
55347;BME280;41218;55.700;38.270;2023-05-23T00:00:27;100248.91;;;12.66;66.72
55347;BME280;41218;55.700;38.270;2023-05-23T00:05:28;100237.34;;;12.60;66.72
55347;BME280;41218;55.700;38.270;2023-05-23T00:10:28;100244.38;;;12.54;66.99
55347;BME280;41218;55.700;38.270;2023-05-23T00:15:29;100238.75;;;12.50;66.85
55347;BME280;41218;55.700;38.270;2023-05-23T00:20:30;100233.47;;;12.41;66.99
55347;BME280;41218;55.700;38.270;2023-05-23T00:25:32;100248.81;;;12.35;66.96
55347;BME280;41218;55.700;38.270;2023-05-23T00:30:35;100246.41;;;12.34;66.98
55347;BME280;41218;55.700;38.270;2023-05-23T00:35:36;100247.16;;;12.31;67.00
55347;BME280;41218;55.700;38.270;2023-05-23T00:40:36;100234.63;;;12.17;67.04
55347;BME280;41218;55.700;38.270;2023-05-23T00:45:37;100243.44;;;12.23;66.99
55347;BME280;41218;55.700;38.270;2023-05-23T00:50:38;100239.81;;;12.19;67.15
55347;BME280;41218;55.700;38.270;2023-05-23T00:55:39;100242.53;;;12.15;67.17
55347;BME280;41218;55.700;38.270;2023-05-23T01:00:40;100249.22;;;12.14;67.15
55347;BME280;41218;55.700;38.270;2023-05-23T01:05:41;100235.69;;;12.09;67.14
55347;BME280;41218;55.700;38.270;2023-05-23T01:10:42;100239.94;;;12.03;67.30
55347;BME280;41218;55.700;38.270;2023-05-23T01:21:13;100211.41;;;11.83;67.52
55347;BME280;41218;55.700;38.270;2023-05-23T01:26:32;100233.75;;;11.90;67.80
55347;BME280;41218;55.700;38.270;2023-05-23T01:31:38;100239.31;;;11.90;67.53
55347;BME280;41218;55.700;38.270;2023-05-23T01:36:42;100223.28;;;11.83;67.44
55347;BME280;41218;55.700;38.270;2023-05-23T01:41:43;100233.22;;;11.85;67.62
55347;BME280;41218;55.700;38.270;2023-05-23T01:46:47;100222.44;;;11.79;67.85
55347;BME280;41218;55.700;38.270;2023-05-23T01:51:47;100237.31;;;11.91;67.62
55347;BME280;41218;55.700;38.270;2023-05-23T01:56:49;100229.66;;;11.84;67.62
55347;BME280;41218;55.700;38.270;2023-05-23T02:01:50;100234.38;;;11.83;67.75
55347;BME280;41218;55.700;38.270;2023-05-23T02:06:50;100232.44;;;11.84;67.81
55347;BME280;41218;55.700;38.270;2023-05-23T02:11:51;100230.81;;;11.83;67.83
55347;BME280;41218;55.700;38.270;2023-05-23T02:16:52;100237.31;;;11.91;68.27
55347;BME280;41218;55.700;38.270;2023-05-23T02:21:53;100236.97;;;11.92;68.17
55347;BME280;41218;55.700;38.270;2023-05-23T02:26:53;100242.19;;;11.97;68.34
55347;BME280;41218;55.700;38.270;2023-05-23T02:31:54;100228.78;;;11.99;68.34
55347;BME280;41218;55.700;38.270;2023-05-23T02:36:54;100244.28;;;12.04;68.52
55347;BME280;41218;55.700;38.270;2023-05-23T02:41:55;100257.41;;;12.07;68.78
55347;BME280;41218;55.700;38.270;2023-05-23T02:46:55;100242.44;;;12.12;68.84
55347;BME280;41218;55.700;38.270;2023-05-23T02:51:56;100245.78;;;12.21;68.97
55347;BME280;41218;55.700;38.270;2023-05-23T02:56:56;100237.97;;;12.27;69.15
55347;BME280;41218;55.700;38.270;2023-05-23T03:01:57;100231.31;;;12.31;69.57
55347;BME280;41218;55.700;38.270;2023-05-23T03:06:58;100233.03;;;12.39;69.93
55347;BME280;41218;55.700;38.270;2023-05-23T03:11:58;100231.19;;;12.47;70.23
55347;BME280;41218;55.700;38.270;2023-05-23T03:17:00;100232.22;;;12.62;70.34
55347;BME280;41218;55.700;38.270;2023-05-23T03:22:03;100217.50;;;12.58;70.20
55347;BME280;41218;55.700;38.270;2023-05-23T03:27:04;100223.13;;;12.65;70.55
55347;BME280;41218;55.700;38.270;2023-05-23T03:32:05;100226.03;;;12.72;70.89
55347;BME280;41218;55.700;38.270;2023-05-23T03:37:05;100220.97;;;12.78;70.67
55347;BME280;41218;55.700;38.270;2023-05-23T03:42:06;100227.78;;;12.84;70.98
55347;BME280;41218;55.700;38.270;2023-05-23T03:47:06;100223.91;;;12.89;70.99
55347;BME280;41218;55.700;38.270;2023-05-23T03:52:07;100223.94;;;12.92;71.28
55347;BME280;41218;55.700;38.270;2023-05-23T03:57:07;100221.59;;;12.94;71.31
55347;BME280;41218;55.700;38.270;2023-05-23T04:02:08;100238.75;;;13.03;71.55
55347;BME280;41218;55.700;38.270;2023-05-23T04:07:08;100232.00;;;13.01;71.69
55347;BME280;41218;55.700;38.270;2023-05-23T04:12:10;100243.69;;;13.14;71.70
55347;BME280;41218;55.700;38.270;2023-05-23T04:17:11;100254.94;;;13.25;71.57
55347;BME280;41218;55.700;38.270;2023-05-23T04:22:11;100247.91;;;13.31;71.33
55347;BME280;41218;55.700;38.270;2023-05-23T04:27:12;100241.56;;;13.30;71.24
55347;BME280;41218;55.700;38.270;2023-05-23T04:32:12;100265.22;;;13.51;71.00
55347;BME280;41218;55.700;38.270;2023-05-23T04:37:14;100266.91;;;13.59;70.83
55347;BME280;41218;55.700;38.270;2023-05-23T04:42:14;100266.19;;;13.66;70.73
55347;BME280;41218;55.700;38.270;2023-05-23T04:47:15;100265.16;;;13.77;70.59
55347;BME280;41218;55.700;38.270;2023-05-23T04:52:15;100270.88;;;13.92;70.36
55347;BME280;41218;55.700;38.270;2023-05-23T04:57:18;100279.75;;;14.05;70.32
55347;BME280;41218;55.700;38.270;2023-05-23T05:02:18;100278.63;;;14.13;70.06
55347;BME280;41218;55.700;38.270;2023-05-23T05:07:19;100270.00;;;14.25;70.03
55347;BME280;41218;55.700;38.270;2023-05-23T05:12:20;100276.03;;;14.31;69.97
55347;BME280;41218;55.700;38.270;2023-05-23T05:17:20;100272.50;;;14.37;69.92
55347;BME280;41218;55.700;38.270;2023-05-23T05:22:21;100266.25;;;14.44;69.84
55347;BME280;41218;55.700;38.270;2023-05-23T05:27:22;100259.56;;;14.52;69.84
55347;BME280;41218;55.700;38.270;2023-05-23T05:32:23;100265.22;;;14.63;70.34
55347;BME280;41218;55.700;38.270;2023-05-23T05:37:23;100259.31;;;14.72;70.12
55347;BME280;41218;55.700;38.270;2023-05-23T05:42:24;100251.88;;;14.83;69.84
55347;BME280;41218;55.700;38.270;2023-05-23T05:47:24;100249.97;;;14.98;69.96
55347;BME280;41218;55.700;38.270;2023-05-23T05:52:25;100250.88;;;15.13;69.72
55347;BME280;41218;55.700;38.270;2023-05-23T05:57:25;100246.22;;;15.31;69.20
55347;BME280;41218;55.700;38.270;2023-05-23T06:02:26;100254.63;;;15.46;69.00
55347;BME280;41218;55.700;38.270;2023-05-23T06:07:26;100243.94;;;15.58;68.93
55347;BME280;41218;55.700;38.270;2023-05-23T06:12:27;100244.00;;;15.73;68.89
55347;BME280;41218;55.700;38.270;2023-05-23T06:17:27;100243.25;;;15.87;68.68
55347;BME280;41218;55.700;38.270;2023-05-23T06:22:28;100218.59;;;15.99;68.35
55347;BME280;41218;55.700;38.270;2023-05-23T06:27:28;100187.56;;;16.08;68.20
55347;BME280;41218;55.700;38.270;2023-05-23T06:32:29;100205.06;;;16.19;67.93
55347;BME280;41218;55.700;38.270;2023-05-23T06:37:29;100197.13;;;16.29;68.08
55347;BME280;41218;55.700;38.270;2023-05-23T06:42:30;100197.50;;;16.38;68.18
55347;BME280;41218;55.700;38.270;2023-05-23T06:47:31;100205.88;;;16.45;68.04
55347;BME280;41218;55.700;38.270;2023-05-23T06:52:31;100203.47;;;16.58;68.31
55347;BME280;41218;55.700;38.270;2023-05-23T06:57:32;100194.69;;;16.70;68.18
55347;BME280;41218;55.700;38.270;2023-05-23T07:02:32;100180.75;;;16.74;67.94
55347;BME280;41218;55.700;38.270;2023-05-23T07:07:32;100195.47;;;16.99;67.84
55347;BME280;41218;55.700;38.270;2023-05-23T07:12:33;100199.84;;;17.00;67.55
55347;BME280;41218;55.700;38.270;2023-05-23T07:17:33;100202.59;;;17.15;67.50
55347;BME280;41218;55.700;38.270;2023-05-23T07:22:35;100203.03;;;17.13;67.57
55347;BME280;41218;55.700;38.270;2023-05-23T07:27:35;100210.13;;;17.32;67.31
55347;BME280;41218;55.700;38.270;2023-05-23T07:32:36;100212.53;;;17.34;67.27
55347;BME280;41218;55.700;38.270;2023-05-23T07:37:36;100206.50;;;17.42;67.17
55347;BME280;41218;55.700;38.270;2023-05-23T07:42:37;100212.53;;;17.34;67.08
55347;BME280;41218;55.700;38.270;2023-05-23T07:47:37;100219.66;;;17.46;67.23
55347;BME280;41218;55.700;38.270;2023-05-23T07:52:38;100218.88;;;17.41;67.01
55347;BME280;41218;55.700;38.270;2023-05-23T07:57:38;100226.06;;;17.46;67.22
55347;BME280;41218;55.700;38.270;2023-05-23T08:02:38;100222.03;;;17.58;67.20
55347;BME280;41218;55.700;38.270;2023-05-23T08:07:39;100231.59;;;17.53;67.08
55347;BME280;41218;55.700;38.270;2023-05-23T08:12:40;100231.56;;;17.64;66.99
55347;BME280;41218;55.700;38.270;2023-05-23T08:17:40;100227.63;;;17.58;66.68
55347;BME280;41218;55.700;38.270;2023-05-23T08:22:40;100237.94;;;17.68;66.90
55347;BME280;41218;55.700;38.270;2023-05-23T08:27:41;100202.03;;;17.59;66.72
55347;BME280;41218;55.700;38.270;2023-05-23T08:32:41;100220.75;;;17.70;66.67
55347;BME280;41218;55.700;38.270;2023-05-23T08:37:42;100212.81;;;17.57;66.84
55347;BME280;41218;55.700;38.270;2023-05-23T08:42:46;100203.25;;;17.58;67.02
55347;BME280;41218;55.700;38.270;2023-05-23T08:47:47;100217.56;;;17.68;66.81
55347;BME280;41218;55.700;38.270;2023-05-23T08:52:55;100214.75;;;17.75;66.83
55347;BME280;41218;55.700;38.270;2023-05-23T08:57:57;100215.09;;;17.84;66.79
55347;BME280;41218;55.700;38.270;2023-05-23T09:03:00;100206.69;;;17.88;66.83
55347;BME280;41218;55.700;38.270;2023-05-23T09:08:01;100213.34;;;18.12;66.76
55347;BME280;41218;55.700;38.270;2023-05-23T09:13:02;100225.31;;;18.12;66.55
55347;BME280;41218;55.700;38.270;2023-05-23T09:18:03;100224.53;;;18.12;66.68
55347;BME280;41218;55.700;38.270;2023-05-23T09:23:04;100236.00;;;18.28;66.50
55347;BME280;41218;55.700;38.270;2023-05-23T09:28:05;100232.88;;;18.19;66.35
55347;BME280;41218;55.700;38.270;2023-05-23T09:33:06;100236.38;;;18.30;66.32
55347;BME280;41218;55.700;38.270;2023-05-23T09:38:07;100230.09;;;18.19;66.40
55347;BME280;41218;55.700;38.270;2023-05-23T09:43:07;100236.00;;;18.28;66.45
55347;BME280;41218;55.700;38.270;2023-05-23T09:48:11;100234.06;;;18.21;66.75
55347;BME280;41218;55.700;38.270;2023-05-23T09:53:13;100226.91;;;18.17;66.87
55347;BME280;41218;55.700;38.270;2023-05-23T09:58:13;100231.19;;;18.29;66.87
55347;BME280;41218;55.700;38.270;2023-05-23T10:03:15;100233.28;;;18.17;67.22
55347;BME280;41218;55.700;38.270;2023-05-23T10:08:31;100217.75;;;18.09;68.21
55347;BME280;41218;55.700;38.270;2023-05-23T10:13:33;100228.13;;;18.12;67.46
55347;BME280;41218;55.700;38.270;2023-05-23T10:18:42;100228.47;;;18.18;67.87
55347;BME280;41218;55.700;38.270;2023-05-23T10:23:44;100232.44;;;18.24;67.70
55347;BME280;41218;55.700;38.270;2023-05-23T10:28:48;100228.00;;;18.27;67.64
55347;BME280;41218;55.700;38.270;2023-05-23T10:33:55;100238.75;;;18.35;68.27
55347;BME280;41218;55.700;38.270;2023-05-23T10:39:14;100225.16;;;18.37;68.29
55347;BME280;41218;55.700;38.270;2023-05-23T10:49:20;100227.84;;;18.48;67.76
55347;BME280;41218;55.700;38.270;2023-05-23T10:54:21;100219.81;;;18.54;67.99
55347;BME280;41218;55.700;38.270;2023-05-23T10:59:22;100222.84;;;18.74;67.38
55347;BME280;41218;55.700;38.270;2023-05-23T11:04:27;100217.66;;;18.72;67.28
55347;BME280;41218;55.700;38.270;2023-05-23T11:09:28;100201.66;;;18.69;67.24
55347;BME280;41218;55.700;38.270;2023-05-23T11:14:33;100212.66;;;18.94;67.00
55347;BME280;41218;55.700;38.270;2023-05-23T11:19:37;100199.91;;;18.90;66.71
55347;BME280;41218;55.700;38.270;2023-05-23T11:30:07;100179.78;;;19.02;65.47
55347;BME280;41218;55.700;38.270;2023-05-23T11:35:09;100181.31;;;19.07;65.29
55347;BME280;41218;55.700;38.270;2023-05-23T11:45:29;100164.28;;;19.25;64.66
55347;BME280;41218;55.700;38.270;2023-05-23T11:50:31;100174.09;;;19.40;64.52
55347;BME280;41218;55.700;38.270;2023-05-23T11:55:32;100168.41;;;19.47;64.15
55347;BME280;41218;55.700;38.270;2023-05-23T12:00:42;100173.97;;;19.51;63.30
55347;BME280;41218;55.700;38.270;2023-05-23T12:05:43;100166.72;;;19.53;63.76
55347;BME280;41218;55.700;38.270;2023-05-23T12:10:50;100165.09;;;19.56;62.79
55347;BME280;41218;55.700;38.270;2023-05-23T12:15:54;100166.63;;;19.60;63.20
55347;BME280;41218;55.700;38.270;2023-05-23T12:20:59;100161.69;;;19.68;62.64
55347;BME280;41218;55.700;38.270;2023-05-23T12:26:04;100154.06;;;19.72;62.83
55347;BME280;41218;55.700;38.270;2023-05-23T12:36:11;100138.66;;;19.84;62.58
55347;BME280;41218;55.700;38.270;2023-05-23T12:41:17;100131.78;;;19.89;62.28
55347;BME280;41218;55.700;38.270;2023-05-23T12:46:27;100126.84;;;19.96;62.22
55347;BME280;41218;55.700;38.270;2023-05-23T12:51:28;100118.03;;;19.98;62.48
55347;BME280;41218;55.700;38.270;2023-05-23T12:56:28;100123.06;;;20.07;61.93
55347;BME280;41218;55.700;38.270;2023-05-23T13:01:29;100107.75;;;20.11;62.17
55347;BME280;41218;55.700;38.270;2023-05-23T13:06:30;100109.31;;;20.16;61.77
55347;BME280;41218;55.700;38.270;2023-05-23T13:11:32;100119.91;;;20.28;61.92
55347;BME280;41218;55.700;38.270;2023-05-23T13:16:33;100119.88;;;20.32;61.46
55347;BME280;41218;55.700;38.270;2023-05-23T13:21:35;100111.34;;;20.35;61.63
55347;BME280;41218;55.700;38.270;2023-05-23T13:26:35;100111.31;;;20.39;61.61
55347;BME280;41218;55.700;38.270;2023-05-23T13:31:36;100106.06;;;20.41;61.63
55347;BME280;41218;55.700;38.270;2023-05-23T13:36:38;100114.00;;;20.46;61.41
55347;BME280;41218;55.700;38.270;2023-05-23T13:41:38;100106.66;;;20.52;60.99
55347;BME280;41218;55.700;38.270;2023-05-23T13:46:39;100102.19;;;20.55;60.97
55347;BME280;41218;55.700;38.270;2023-05-23T13:51:40;100099.88;;;20.50;60.97
55347;BME280;41218;55.700;38.270;2023-05-23T13:56:42;100094.63;;;20.52;60.42
55347;BME280;41218;55.700;38.270;2023-05-23T14:01:43;100078.66;;;20.49;60.88
55347;BME280;41218;55.700;38.270;2023-05-23T14:06:43;100078.66;;;20.49;60.99
55347;BME280;41218;55.700;38.270;2023-05-23T14:11:44;100076.50;;;20.56;61.06
55347;BME280;41218;55.700;38.270;2023-05-23T14:16:44;100068.81;;;20.60;61.43
55347;BME280;41218;55.700;38.270;2023-05-23T14:21:45;100061.13;;;20.65;61.26
55347;BME280;41218;55.700;38.270;2023-05-23T14:26:45;100067.47;;;20.69;61.42
55347;BME280;41218;55.700;38.270;2023-05-23T14:31:46;100062.91;;;20.75;61.19
55347;BME280;41218;55.700;38.270;2023-05-23T14:36:47;100047.22;;;20.77;61.16
55347;BME280;41218;55.700;38.270;2023-05-23T14:41:47;100051.25;;;20.76;61.48
55347;BME280;41218;55.700;38.270;2023-05-23T14:46:48;100039.31;;;20.72;61.29
55347;BME280;41218;55.700;38.270;2023-05-23T14:51:49;100048.09;;;20.74;61.18
55347;BME280;41218;55.700;38.270;2023-05-23T14:56:49;100048.88;;;20.75;61.03
55347;BME280;41218;55.700;38.270;2023-05-23T15:01:50;100035.25;;;20.73;61.42
55347;BME280;41218;55.700;38.270;2023-05-23T15:06:51;100038.00;;;20.77;61.31
55347;BME280;41218;55.700;38.270;2023-05-23T15:11:51;100032.75;;;20.79;60.99
55347;BME280;41218;55.700;38.270;2023-05-23T15:16:52;100021.63;;;20.72;61.04
55347;BME280;41218;55.700;38.270;2023-05-23T15:21:52;100011.28;;;20.69;61.15
55347;BME280;41218;55.700;38.270;2023-05-23T15:26:53;100014.59;;;20.64;60.99
55347;BME280;41218;55.700;38.270;2023-05-23T15:31:54;99999.16;;;20.52;61.20
55347;BME280;41218;55.700;38.270;2023-05-23T15:36:54;100004.41;;;20.50;61.50
55347;BME280;41218;55.700;38.270;2023-05-23T15:41:55;100000.44;;;20.47;61.55
55347;BME280;41218;55.700;38.270;2023-05-23T15:46:56;99992.81;;;20.48;61.61
55347;BME280;41218;55.700;38.270;2023-05-23T15:51:56;99992.44;;;20.46;62.03
55347;BME280;41218;55.700;38.270;2023-05-23T15:56:57;99987.78;;;20.39;61.78
55347;BME280;41218;55.700;38.270;2023-05-23T16:01:57;100001.88;;;20.35;62.10
55347;BME280;41218;55.700;38.270;2023-05-23T16:06:58;99993.97;;;20.30;62.08
55347;BME280;41218;55.700;38.270;2023-05-23T16:11:58;99998.50;;;20.24;61.96
55347;BME280;41218;55.700;38.270;2023-05-23T16:16:59;100020.66;;;20.18;62.17
55347;BME280;41218;55.700;38.270;2023-05-23T16:22:05;100015.59;;;20.10;62.30
55347;BME280;41218;55.700;38.270;2023-05-23T16:27:05;99996.81;;;20.07;62.48
55347;BME280;41218;55.700;38.270;2023-05-23T16:32:06;99993.66;;;20.05;62.52
55347;BME280;41218;55.700;38.270;2023-05-23T16:37:07;99989.31;;;20.00;62.77
55347;BME280;41218;55.700;38.270;2023-05-23T16:42:07;99979.03;;;19.93;63.09
55347;BME280;41218;55.700;38.270;2023-05-23T16:47:08;99980.31;;;19.89;63.04
55347;BME280;41218;55.700;38.270;2023-05-23T16:52:08;99987.25;;;19.80;63.45
55347;BME280;41218;55.700;38.270;2023-05-23T16:57:09;99980.19;;;19.72;63.59
55347;BME280;41218;55.700;38.270;2023-05-23T17:02:13;99989.34;;;19.76;63.74
55347;BME280;41218;55.700;38.270;2023-05-23T17:07:14;99974.59;;;19.72;63.81
55347;BME280;41218;55.700;38.270;2023-05-23T17:12:14;99980.66;;;19.67;63.89
55347;BME280;41218;55.700;38.270;2023-05-23T17:17:15;99965.66;;;19.54;64.24
55347;BME280;41218;55.700;38.270;2023-05-23T17:22:15;99959.38;;;19.46;64.63
55347;BME280;41218;55.700;38.270;2023-05-23T17:27:16;99960.28;;;19.39;64.76
55347;BME280;41218;55.700;38.270;2023-05-23T17:32:17;99959.59;;;19.32;64.75
55347;BME280;41218;55.700;38.270;2023-05-23T17:37:19;99954.91;;;19.25;64.72
55347;BME280;41218;55.700;38.270;2023-05-23T17:42:19;99945.81;;;19.17;65.19
55347;BME280;41218;55.700;38.270;2023-05-23T17:47:20;99941.13;;;19.11;65.32
55347;BME280;41218;55.700;38.270;2023-05-23T17:52:21;99942.81;;;19.05;65.27
55347;BME280;41218;55.700;38.270;2023-05-23T17:57:21;99924.53;;;18.96;65.44
55347;BME280;41218;55.700;38.270;2023-05-23T18:02:22;99926.97;;;18.94;65.42
55347;BME280;41218;55.700;38.270;2023-05-23T18:07:22;99938.22;;;18.91;65.57
55347;BME280;41218;55.700;38.270;2023-05-23T18:12:23;99936.72;;;18.83;65.75
55347;BME280;41218;55.700;38.270;2023-05-23T18:17:24;99939.16;;;18.80;65.59
55347;BME280;41218;55.700;38.270;2023-05-23T18:22:25;99932.00;;;18.76;65.70
55347;BME280;41218;55.700;38.270;2023-05-23T18:27:27;99939.66;;;18.72;65.67
55347;BME280;41218;55.700;38.270;2023-05-23T18:32:27;99925.78;;;18.61;65.88
55347;BME280;41218;55.700;38.270;2023-05-23T18:37:28;99926.28;;;18.56;65.87
55347;BME280;41218;55.700;38.270;2023-05-23T18:42:28;99929.41;;;18.61;65.74
55347;BME280;41218;55.700;38.270;2023-05-23T18:47:31;99928.00;;;18.46;65.86
55347;BME280;41218;55.700;38.270;2023-05-23T18:52:31;99918.94;;;18.35;65.85
55347;BME280;41218;55.700;38.270;2023-05-23T18:57:36;99907.13;;;18.20;65.94
55347;BME280;41218;55.700;38.270;2023-05-23T19:02:37;99931.31;;;18.37;65.75
55347;BME280;41218;55.700;38.270;2023-05-23T19:07:42;99939.13;;;18.19;65.80
55347;BME280;41218;55.700;38.270;2023-05-23T19:12:43;99932.31;;;18.20;65.74
55347;BME280;41218;55.700;38.270;2023-05-23T19:17:43;99938.09;;;18.02;65.91
55347;BME280;41218;55.700;38.270;2023-05-23T19:22:46;99936.94;;;17.99;65.82
55347;BME280;41218;55.700;38.270;2023-05-23T19:27:47;99932.34;;;17.78;66.05
55347;BME280;41218;55.700;38.270;2023-05-23T19:32:47;99927.53;;;17.79;66.06
55347;BME280;41218;55.700;38.270;2023-05-23T19:37:48;99926.06;;;17.67;66.41
55347;BME280;41218;55.700;38.270;2023-05-23T19:42:48;99928.44;;;17.69;66.30
55347;BME280;41218;55.700;38.270;2023-05-23T19:47:49;99929.38;;;17.55;66.36
55347;BME280;41218;55.700;38.270;2023-05-23T19:52:50;99925.69;;;17.61;66.25
55347;BME280;41218;55.700;38.270;2023-05-23T19:57:50;99925.03;;;17.47;66.41
55347;BME280;41218;55.700;38.270;2023-05-23T20:02:51;99917.03;;;17.52;66.41
55347;BME280;41218;55.700;38.270;2023-05-23T20:07:52;99909.56;;;17.38;66.56
55347;BME280;41218;55.700;38.270;2023-05-23T20:12:52;99923.50;;;17.42;66.65
55347;BME280;41218;55.700;38.270;2023-05-23T20:17:52;99909.22;;;17.29;66.79
55347;BME280;41218;55.700;38.270;2023-05-23T20:22:53;99912.38;;;17.35;66.71
55347;BME280;41218;55.700;38.270;2023-05-23T20:27:54;99884.63;;;17.13;66.71
55347;BME280;41218;55.700;38.270;2023-05-23T20:32:55;99918.03;;;17.28;66.85
55347;BME280;41218;55.700;38.270;2023-05-23T20:37:56;99918.34;;;17.37;66.45
55347;BME280;41218;55.700;38.270;2023-05-23T20:42:57;99919.22;;;17.27;66.67
55347;BME280;41218;55.700;38.270;2023-05-23T20:48:03;99921.63;;;17.25;66.43
55347;BME280;41218;55.700;38.270;2023-05-23T20:53:03;99938.28;;;17.39;66.33
55347;BME280;41218;55.700;38.270;2023-05-23T20:58:05;99933.94;;;17.31;66.07
55347;BME280;41218;55.700;38.270;2023-05-23T21:03:06;99935.09;;;17.37;65.96
55347;BME280;41218;55.700;38.270;2023-05-23T21:08:06;99926.41;;;17.28;65.97
55347;BME280;41218;55.700;38.270;2023-05-23T21:13:08;99934.41;;;17.26;66.05
55347;BME280;41218;55.700;38.270;2023-05-23T21:18:08;99938.72;;;17.34;65.92
55347;BME280;41218;55.700;38.270;2023-05-23T21:23:09;99926.47;;;17.20;65.69
55347;BME280;41218;55.700;38.270;2023-05-23T21:28:09;99935.97;;;17.30;65.81
55347;BME280;41218;55.700;38.270;2023-05-23T21:33:10;99934.44;;;17.18;65.76
55347;BME280;41218;55.700;38.270;2023-05-23T21:38:10;99939.63;;;17.24;65.79
55347;BME280;41218;55.700;38.270;2023-05-23T21:43:11;99924.53;;;17.10;65.84
55347;BME280;41218;55.700;38.270;2023-05-23T21:48:11;99932.94;;;17.07;66.02
55347;BME280;41218;55.700;38.270;2023-05-23T21:53:12;99926.19;;;17.04;66.15
55347;BME280;41218;55.700;38.270;2023-05-23T21:58:13;99925.78;;;17.02;66.01
55347;BME280;41218;55.700;38.270;2023-05-23T22:03:15;99929.00;;;17.00;66.12
55347;BME280;41218;55.700;38.270;2023-05-23T22:08:15;99917.38;;;17.09;65.84
55347;BME280;41218;55.700;38.270;2023-05-23T22:13:16;99917.84;;;16.97;65.88
55347;BME280;41218;55.700;38.270;2023-05-23T22:18:16;99912.25;;;17.00;66.13
55347;BME280;41218;55.700;38.270;2023-05-23T22:23:17;99917.91;;;16.90;66.04
55347;BME280;41218;55.700;38.270;2023-05-23T22:28:18;99919.94;;;16.86;66.29
55347;BME280;41218;55.700;38.270;2023-05-23T22:33:18;99919.88;;;16.93;66.07
55347;BME280;41218;55.700;38.270;2023-05-23T22:38:19;99915.16;;;16.82;66.26
55347;BME280;41218;55.700;38.270;2023-05-23T22:43:20;99907.19;;;16.74;66.77
55347;BME280;41218;55.700;38.270;2023-05-23T22:48:20;99906.78;;;16.82;66.44
55347;BME280;41218;55.700;38.270;2023-05-23T22:53:21;99908.03;;;16.71;66.36
55347;BME280;41218;55.700;38.270;2023-05-23T22:58:21;99914.41;;;16.68;66.54
55347;BME280;41218;55.700;38.270;2023-05-23T23:03:22;99910.06;;;16.67;66.47
55347;BME280;41218;55.700;38.270;2023-05-23T23:08:22;99908.81;;;16.75;66.30
55347;BME280;41218;55.700;38.270;2023-05-23T23:13:23;99908.06;;;16.63;66.24
55347;BME280;41218;55.700;38.270;2023-05-23T23:18:24;99892.19;;;16.53;66.41
55347;BME280;41218;55.700;38.270;2023-05-23T23:23:26;99903.72;;;16.59;66.48
55347;BME280;41218;55.700;38.270;2023-05-23T23:28:26;99906.44;;;16.66;66.40
55347;BME280;41218;55.700;38.270;2023-05-23T23:33:27;99896.94;;;16.56;66.26
55347;BME280;41218;55.700;38.270;2023-05-23T23:38:27;99901.72;;;16.52;66.57
55347;BME280;41218;55.700;38.270;2023-05-23T23:43:27;99896.13;;;16.59;66.51
55347;BME280;41218;55.700;38.270;2023-05-23T23:48:29;99881.47;;;16.41;66.44
55347;BME280;41218;55.700;38.270;2023-05-23T23:53:30;99897.78;;;16.46;66.21
55347;BME280;41218;55.700;38.270;2023-05-23T23:58:30;99892.97;;;16.54;66.46
